WZZ60 LATI-LHBP
Flight info
| Callsign | WZZ60 |
|---|---|
| Flight time | N/A |
| Altitude | 36000 |
| Route | RINAV DCT ALELU DCT PARAK DCT KEZAL |
| Aircraft | A320/M-SDE1E2E3FGIJ1J4RWXY/LB1 |
Departure
| Time | 2026-04-27 23:31 |
|---|---|
| Airport | Tirana International Airport Mother Teresa (LATI) |
Arrival
| Time | N/A |
|---|---|
| Airport | Budapest Liszt Ferenc International Airport (LHBP) |
| Time | Latitude | Longitude | Altitude | Speed | Heading |
|---|---|---|---|---|---|
| 2026-04-27 22:54 | 41.42104 | 19.71488 | 149 ft | 0 kts | 264° |
| 2026-04-27 23:21 | 41.42105 | 19.71501 | 118 ft | 4 kts | 271° |
| 2026-04-27 23:22 | 41.42100 | 19.71534 | 120 ft | 4 kts | 306° |
| 2026-04-27 23:22 | 41.42080 | 19.71557 | 121 ft | 4 kts | 338° |
| 2026-04-27 23:22 | 41.42056 | 19.71565 | 119 ft | 2 kts | 354° |
| 2026-04-27 23:22 | 41.42054 | 19.71566 | 118 ft | 0 kts | 354° |
| 2026-04-27 23:24 | 41.42057 | 19.71565 | 122 ft | 0 kts | 354° |
| 2026-04-27 23:25 | 41.42060 | 19.71565 | 122 ft | 2 kts | 354° |
| 2026-04-27 23:25 | 41.42080 | 19.71562 | 120 ft | 4 kts | 354° |
| 2026-04-27 23:25 | 41.42084 | 19.71562 | 120 ft | 0 kts | 354° |
| 2026-04-27 23:26 | 41.42085 | 19.71561 | 120 ft | 1 kts | 354° |
| 2026-04-27 23:26 | 41.42102 | 19.71559 | 121 ft | 4 kts | 354° |
| 2026-04-27 23:26 | 41.42138 | 19.71554 | 120 ft | 7 kts | 354° |
| 2026-04-27 23:26 | 41.42192 | 19.71547 | 119 ft | 9 kts | 354° |
| 2026-04-27 23:27 | 41.42264 | 19.71538 | 117 ft | 12 kts | 354° |
| 2026-04-27 23:27 | 41.42352 | 19.71525 | 117 ft | 14 kts | 353° |
| 2026-04-27 23:27 | 41.42458 | 19.71510 | 117 ft | 17 kts | 353° |
| 2026-04-27 23:27 | 41.42563 | 19.71496 | 117 ft | 14 kts | 354° |
| 2026-04-27 23:28 | 41.42643 | 19.71487 | 118 ft | 11 kts | 6° |
| 2026-04-27 23:28 | 41.42665 | 19.71581 | 116 ft | 12 kts | 80° |
| 2026-04-27 23:28 | 41.42675 | 19.71678 | 118 ft | 5 kts | 83° |
| 2026-04-27 23:28 | 41.42679 | 19.71732 | 118 ft | 3 kts | 84° |
| 2026-04-27 23:29 | 41.42682 | 19.71770 | 115 ft | 5 kts | 84° |
| 2026-04-27 23:29 | 41.42686 | 19.71829 | 117 ft | 7 kts | 84° |
| 2026-04-27 23:29 | 41.42684 | 19.71897 | 116 ft | 8 kts | 115° |
| 2026-04-27 23:29 | 41.42645 | 19.71901 | 118 ft | 0 kts | 175° |
| 2026-04-27 23:30 | 41.42500 | 19.71919 | 117 ft | 56 kts | 174° |
| 2026-04-27 23:30 | 41.41899 | 19.71999 | 121 ft | 115 kts | 174° |
| 2026-04-27 23:30 | 41.40961 | 19.72115 | 162 ft | 156 kts | 175° |
| 2026-04-27 23:31 | 41.39851 | 19.72222 | 686 ft | 159 kts | 174° |
| 2026-04-27 23:31 | 41.38747 | 19.72363 | 1294 ft | 160 kts | 174° |
| 2026-04-27 23:31 | 41.37601 | 19.72518 | 1598 ft | 179 kts | 173° |
| 2026-04-27 23:31 | 41.36286 | 19.72713 | 1855 ft | 201 kts | 173° |
| 2026-04-27 23:32 | 41.34805 | 19.72919 | 2066 ft | 228 kts | 174° |
| 2026-04-27 23:32 | 41.33137 | 19.73129 | 2407 ft | 254 kts | 175° |
| 2026-04-27 23:32 | 41.31312 | 19.73329 | 3032 ft | 268 kts | 175° |
| 2026-04-27 23:32 | 41.29450 | 19.73548 | 3954 ft | 270 kts | 174° |
| 2026-04-27 23:33 | 41.27579 | 19.73814 | 4891 ft | 272 kts | 174° |
| 2026-04-27 23:33 | 41.25685 | 19.73896 | 5576 ft | 275 kts | 191° |
| 2026-04-27 23:33 | 41.23932 | 19.72899 | 6293 ft | 279 kts | 218° |
| 2026-04-27 23:33 | 41.22681 | 19.70941 | 6981 ft | 282 kts | 244° |
| 2026-04-27 23:34 | 41.22180 | 19.68434 | 7807 ft | 283 kts | 268° |
| 2026-04-27 23:34 | 41.22501 | 19.65859 | 8584 ft | 287 kts | 293° |
| 2026-04-27 23:34 | 41.23644 | 19.63690 | 9338 ft | 291 kts | 319° |
| 2026-04-27 23:34 | 41.25413 | 19.62412 | 10096 ft | 293 kts | 346° |
| 2026-04-27 23:35 | 41.27450 | 19.62282 | 10705 ft | 300 kts | 7° |
| 2026-04-27 23:35 | 41.29603 | 19.62637 | 10873 ft | 323 kts | 8° |
| 2026-04-27 23:35 | 41.31896 | 19.63058 | 11163 ft | 340 kts | 8° |
| 2026-04-27 23:35 | 41.34255 | 19.63502 | 11785 ft | 344 kts | 7° |
| 2026-04-27 23:36 | 41.36635 | 19.63945 | 12455 ft | 347 kts | 7° |
| 2026-04-27 23:36 | 41.39034 | 19.64381 | 13129 ft | 349 kts | 7° |
| 2026-04-27 23:36 | 41.41450 | 19.64809 | 13804 ft | 352 kts | 7° |
| 2026-04-27 23:36 | 41.43888 | 19.65235 | 14406 ft | 354 kts | 6° |
| 2026-04-27 23:37 | 41.46341 | 19.65664 | 14989 ft | 357 kts | 6° |
| 2026-04-27 23:37 | 41.48814 | 19.66098 | 15556 ft | 360 kts | 6° |
| 2026-04-27 23:37 | 41.51303 | 19.66538 | 16123 ft | 362 kts | 6° |
| 2026-04-27 23:37 | 41.53812 | 19.66986 | 16684 ft | 365 kts | 6° |
| 2026-04-27 23:38 | 41.56340 | 19.67438 | 17226 ft | 368 kts | 6° |
| 2026-04-27 23:38 | 41.58891 | 19.67890 | 17790 ft | 371 kts | 6° |
| 2026-04-27 23:38 | 41.61459 | 19.68346 | 18347 ft | 374 kts | 6° |
| 2026-04-27 23:38 | 41.64049 | 19.68803 | 18848 ft | 376 kts | 6° |
| 2026-04-27 23:39 | 41.66643 | 19.69341 | 19377 ft | 379 kts | 8° |
| 2026-04-27 23:39 | 41.69235 | 19.70035 | 19916 ft | 381 kts | 10° |
| 2026-04-27 23:39 | 41.71822 | 19.70822 | 20453 ft | 382 kts | 11° |
| 2026-04-27 23:39 | 41.74412 | 19.71645 | 20981 ft | 383 kts | 12° |
| 2026-04-27 23:40 | 41.77011 | 19.72473 | 21503 ft | 384 kts | 11° |
| 2026-04-27 23:40 | 41.79621 | 19.73288 | 21998 ft | 386 kts | 11° |
| 2026-04-27 23:40 | 41.82243 | 19.74083 | 22479 ft | 387 kts | 11° |
| 2026-04-27 23:40 | 41.84880 | 19.74865 | 22963 ft | 389 kts | 11° |
| 2026-04-27 23:41 | 41.87491 | 19.75630 | 23445 ft | 390 kts | 11° |
| 2026-04-27 23:41 | 41.90148 | 19.76407 | 23890 ft | 392 kts | 11° |
| 2026-04-27 23:41 | 41.92817 | 19.77192 | 24288 ft | 393 kts | 11° |
| 2026-04-27 23:41 | 41.95496 | 19.77983 | 24668 ft | 395 kts | 11° |
| 2026-04-27 23:42 | 41.98192 | 19.78756 | 25034 ft | 397 kts | 8° |
| 2026-04-27 23:42 | 42.00939 | 19.79165 | 25380 ft | 398 kts | 4° |
| 2026-04-27 23:42 | 42.03710 | 19.79507 | 25743 ft | 400 kts | 4° |
| 2026-04-27 23:42 | 42.06490 | 19.79854 | 26102 ft | 403 kts | 4° |
| 2026-04-27 23:43 | 42.09286 | 19.80202 | 26511 ft | 404 kts | 4° |
| 2026-04-27 23:43 | 42.12091 | 19.80550 | 26861 ft | 406 kts | 4° |
| 2026-04-27 23:43 | 42.14907 | 19.80900 | 27200 ft | 408 kts | 4° |
| 2026-04-27 23:43 | 42.17743 | 19.81254 | 27554 ft | 410 kts | 4° |
| 2026-04-27 23:44 | 42.20585 | 19.81614 | 27900 ft | 412 kts | 5° |
| 2026-04-27 23:44 | 42.23456 | 19.81977 | 28202 ft | 414 kts | 4° |
| 2026-04-27 23:44 | 42.26330 | 19.82336 | 28566 ft | 416 kts | 4° |
| 2026-04-27 23:44 | 42.29222 | 19.82700 | 28921 ft | 418 kts | 4° |
| 2026-04-27 23:45 | 42.32128 | 19.83066 | 29244 ft | 421 kts | 4° |
| 2026-04-27 23:45 | 42.35047 | 19.83435 | 29626 ft | 421 kts | 4° |
| 2026-04-27 23:45 | 42.37960 | 19.83801 | 30121 ft | 420 kts | 4° |
| 2026-04-27 23:45 | 42.40865 | 19.84166 | 30528 ft | 419 kts | 4° |
| 2026-04-27 23:46 | 42.43765 | 19.84529 | 30908 ft | 418 kts | 4° |
| 2026-04-27 23:46 | 42.46661 | 19.84892 | 31312 ft | 417 kts | 4° |
| 2026-04-27 23:46 | 42.49551 | 19.85232 | 31722 ft | 416 kts | 3° |
| 2026-04-27 23:46 | 42.52442 | 19.85475 | 32143 ft | 415 kts | 1° |
| 2026-04-27 23:47 | 42.55326 | 19.85646 | 32555 ft | 414 kts | 1° |
| 2026-04-27 23:47 | 42.58201 | 19.85782 | 32974 ft | 413 kts | 0° |
| 2026-04-27 23:47 | 42.61074 | 19.85914 | 33383 ft | 412 kts | 0° |
| 2026-04-27 23:47 | 42.63937 | 19.86058 | 33808 ft | 411 kts | 1° |
| 2026-04-27 23:48 | 42.66796 | 19.86219 | 34183 ft | 411 kts | 1° |
| 2026-04-27 23:48 | 42.69647 | 19.86394 | 34509 ft | 410 kts | 1° |
| 2026-04-27 23:48 | 42.71537 | 19.86514 | 34722 ft | 410 kts | 1° |
| 2026-04-27 23:48 | 42.74385 | 19.86697 | 35027 ft | 410 kts | 1° |
| 2026-04-27 23:49 | 42.77232 | 19.86880 | 35320 ft | 410 kts | 1° |
| 2026-04-27 23:49 | 42.80077 | 19.87061 | 35626 ft | 409 kts | 0° |
| 2026-04-27 23:49 | 42.82920 | 19.87244 | 35918 ft | 409 kts | 0° |
| 2026-04-27 23:49 | 42.85763 | 19.87427 | 36118 ft | 410 kts | 0° |
| 2026-04-27 23:50 | 42.91524 | 19.87791 | 36163 ft | 419 kts | 0° |
| 2026-04-27 23:50 | 42.97366 | 19.88158 | 36166 ft | 421 kts | 0° |
| 2026-04-27 23:51 | 43.03223 | 19.88528 | 36166 ft | 421 kts | 0° |
| 2026-04-27 23:51 | 43.09079 | 19.88904 | 36168 ft | 421 kts | 0° |
| 2026-04-27 23:52 | 43.14938 | 19.89270 | 36168 ft | 422 kts | 0° |
| 2026-04-27 23:52 | 43.20801 | 19.89633 | 36181 ft | 422 kts | 0° |
| 2026-04-27 23:53 | 43.26671 | 19.90005 | 36190 ft | 422 kts | 0° |
| 2026-04-27 23:53 | 43.32538 | 19.90387 | 36188 ft | 422 kts | 0° |
| 2026-04-27 23:54 | 43.38401 | 19.90763 | 36184 ft | 421 kts | 0° |
| 2026-04-27 23:54 | 43.44260 | 19.91129 | 36188 ft | 421 kts | 0° |
| 2026-04-27 23:55 | 43.50118 | 19.91507 | 36189 ft | 421 kts | 0° |
| 2026-04-27 23:55 | 43.55969 | 19.91891 | 36186 ft | 421 kts | 0° |
| 2026-04-27 23:56 | 43.61815 | 19.92270 | 36201 ft | 421 kts | 0° |
| 2026-04-27 23:56 | 43.67664 | 19.92644 | 36196 ft | 421 kts | 0° |
| 2026-04-27 23:57 | 43.73507 | 19.93020 | 36184 ft | 420 kts | 0° |
| 2026-04-27 23:57 | 43.79350 | 19.93395 | 36177 ft | 420 kts | 0° |
| 2026-04-27 23:58 | 43.85188 | 19.93775 | 36183 ft | 420 kts | 0° |
| 2026-04-27 23:58 | 43.91030 | 19.94158 | 36177 ft | 420 kts | 0° |
| 2026-04-27 23:59 | 43.96870 | 19.94542 | 36168 ft | 420 kts | 0° |
| 2026-04-27 23:59 | 44.02710 | 19.94921 | 36168 ft | 420 kts | 360° |
| 2026-04-28 00:00 | 44.08550 | 19.95296 | 36165 ft | 420 kts | 360° |
| 2026-04-28 00:00 | 44.14394 | 19.95687 | 36161 ft | 421 kts | 360° |
| 2026-04-28 00:01 | 44.20239 | 19.96075 | 36176 ft | 420 kts | 360° |
| 2026-04-28 00:01 | 44.26084 | 19.96460 | 36168 ft | 420 kts | 360° |
| 2026-04-28 00:02 | 44.31923 | 19.96841 | 36163 ft | 420 kts | 360° |
| 2026-04-28 00:02 | 44.37762 | 19.97228 | 36159 ft | 420 kts | 360° |
| 2026-04-28 00:03 | 44.43600 | 19.97614 | 36167 ft | 420 kts | 359° |
| 2026-04-28 00:03 | 44.49438 | 19.98000 | 36161 ft | 420 kts | 359° |
| 2026-04-28 00:04 | 44.58193 | 19.98578 | 36155 ft | 420 kts | 359° |
| 2026-04-28 00:05 | 44.63989 | 19.98968 | 36159 ft | 420 kts | 359° |
| 2026-04-28 00:05 | 44.69824 | 19.99366 | 36157 ft | 420 kts | 359° |
| 2026-04-28 00:06 | 44.75706 | 19.99763 | 36160 ft | 420 kts | 359° |
| 2026-04-28 00:06 | 44.81505 | 20.00149 | 36178 ft | 420 kts | 359° |
| 2026-04-28 00:07 | 44.87347 | 20.00536 | 36188 ft | 420 kts | 359° |
| 2026-04-28 00:07 | 44.93230 | 20.00931 | 36184 ft | 420 kts | 359° |
| 2026-04-28 00:08 | 44.99031 | 20.01321 | 36183 ft | 420 kts | 359° |
| 2026-04-28 00:08 | 45.04873 | 20.01719 | 36186 ft | 420 kts | 359° |
| 2026-04-28 00:09 | 45.10711 | 20.02122 | 36185 ft | 420 kts | 359° |
| 2026-04-28 00:09 | 45.16555 | 20.02509 | 36184 ft | 420 kts | 359° |
| 2026-04-28 00:10 | 45.22399 | 20.02903 | 36188 ft | 420 kts | 359° |
| 2026-04-28 00:10 | 45.28240 | 20.03304 | 36188 ft | 420 kts | 359° |
| 2026-04-28 00:11 | 45.34082 | 20.03709 | 36186 ft | 420 kts | 359° |
| 2026-04-28 00:11 | 45.39925 | 20.04104 | 36198 ft | 420 kts | 359° |
| 2026-04-28 00:12 | 45.45767 | 20.04499 | 36196 ft | 420 kts | 359° |
| 2026-04-28 00:12 | 45.51606 | 20.04899 | 36195 ft | 420 kts | 359° |
| 2026-04-28 00:13 | 45.57443 | 20.05306 | 36194 ft | 420 kts | 359° |
| 2026-04-28 00:13 | 45.63282 | 20.05708 | 36210 ft | 420 kts | 358° |
| 2026-04-28 00:14 | 45.69119 | 20.06109 | 36204 ft | 420 kts | 359° |
| 2026-04-28 00:14 | 45.74957 | 20.06521 | 36201 ft | 420 kts | 359° |
| 2026-04-28 00:15 | 45.80796 | 20.06929 | 36226 ft | 420 kts | 358° |
| 2026-04-28 00:15 | 45.86628 | 20.07336 | 36207 ft | 419 kts | 358° |
| 2026-04-28 00:16 | 45.92455 | 20.07740 | 36203 ft | 419 kts | 358° |
| 2026-04-28 00:16 | 45.98269 | 20.08148 | 36198 ft | 418 kts | 358° |
| 2026-04-28 00:17 | 46.04080 | 20.08559 | 36204 ft | 418 kts | 358° |
| 2026-04-28 00:17 | 46.09889 | 20.08964 | 36205 ft | 418 kts | 358° |
| 2026-04-28 00:18 | 46.15701 | 20.09369 | 36198 ft | 418 kts | 358° |
| 2026-04-28 00:18 | 46.21512 | 20.09976 | 36195 ft | 419 kts | 1° |
| 2026-04-28 00:19 | 46.27282 | 20.10833 | 36206 ft | 420 kts | 1° |
| 2026-04-28 00:19 | 46.33092 | 20.11706 | 36197 ft | 420 kts | 1° |
| 2026-04-28 00:20 | 46.38905 | 20.12521 | 36197 ft | 419 kts | 0° |
| 2026-04-28 00:20 | 46.44716 | 20.13299 | 36203 ft | 419 kts | 0° |
| 2026-04-28 00:21 | 46.50532 | 20.14087 | 36198 ft | 420 kts | 0° |
| 2026-04-28 00:21 | 46.56343 | 20.14893 | 36189 ft | 420 kts | 0° |
| 2026-04-28 00:22 | 46.62169 | 20.15704 | 35746 ft | 423 kts | 0° |
| 2026-04-28 00:22 | 46.65120 | 20.16110 | 34948 ft | 428 kts | 0° |
| 2026-04-28 00:22 | 46.68093 | 20.16517 | 34203 ft | 430 kts | 0° |
| 2026-04-28 00:22 | 46.71087 | 20.16929 | 33315 ft | 434 kts | 0° |
| 2026-04-28 00:23 | 46.74070 | 20.17348 | 32895 ft | 427 kts | 0° |
| 2026-04-28 00:23 | 46.77011 | 20.17766 | 32381 ft | 422 kts | 0° |
| 2026-04-28 00:23 | 46.79919 | 20.18177 | 31877 ft | 418 kts | 0° |
| 2026-04-28 00:23 | 46.82801 | 20.18581 | 31378 ft | 414 kts | 0° |
| 2026-04-28 00:24 | 46.85655 | 20.18980 | 30892 ft | 410 kts | 0° |
| 2026-04-28 00:24 | 46.88485 | 20.19377 | 30385 ft | 407 kts | 0° |
| 2026-04-28 00:24 | 46.91293 | 20.19768 | 29843 ft | 403 kts | 0° |
| 2026-04-28 00:24 | 46.94067 | 20.20156 | 29355 ft | 398 kts | 0° |
| 2026-04-28 00:25 | 46.96810 | 20.20541 | 28877 ft | 393 kts | 0° |
| 2026-04-28 00:25 | 46.99483 | 20.20917 | 28409 ft | 389 kts | 0° |
| 2026-04-28 00:25 | 47.02160 | 20.21292 | 27950 ft | 385 kts | 0° |
| 2026-04-28 00:25 | 47.04811 | 20.21664 | 27484 ft | 381 kts | 0° |
| 2026-04-28 00:26 | 47.07437 | 20.22032 | 27038 ft | 377 kts | 0° |
| 2026-04-28 00:26 | 47.10040 | 20.22376 | 26611 ft | 373 kts | 357° |
| 2026-04-28 00:26 | 47.12586 | 20.22161 | 26181 ft | 363 kts | 345° |
| 2026-04-28 00:26 | 47.14989 | 20.21188 | 25751 ft | 355 kts | 334° |
| 2026-04-28 00:27 | 47.17160 | 20.19558 | 25330 ft | 348 kts | 323° |
| 2026-04-28 00:27 | 47.19038 | 20.17362 | 24928 ft | 342 kts | 313° |
| 2026-04-28 00:27 | 47.20666 | 20.14833 | 24535 ft | 339 kts | 311° |
| 2026-04-28 00:27 | 47.22270 | 20.12308 | 24146 ft | 337 kts | 311° |
| 2026-04-28 00:28 | 47.23863 | 20.09799 | 23742 ft | 334 kts | 311° |
| 2026-04-28 00:28 | 47.25442 | 20.07308 | 23290 ft | 331 kts | 311° |
| 2026-04-28 00:28 | 47.27005 | 20.04846 | 22897 ft | 327 kts | 311° |
| 2026-04-28 00:28 | 47.28545 | 20.02415 | 22511 ft | 323 kts | 311° |
| 2026-04-28 00:29 | 47.30065 | 20.00006 | 22111 ft | 320 kts | 311° |
| 2026-04-28 00:29 | 47.31572 | 19.97617 | 21723 ft | 317 kts | 311° |
| 2026-04-28 00:29 | 47.33068 | 19.95248 | 21301 ft | 315 kts | 311° |
| 2026-04-28 00:29 | 47.34557 | 19.92888 | 20858 ft | 314 kts | 311° |
| 2026-04-28 00:30 | 47.36040 | 19.90533 | 20395 ft | 313 kts | 311° |
| 2026-04-28 00:30 | 47.37417 | 19.88062 | 19951 ft | 311 kts | 302° |
| 2026-04-28 00:30 | 47.38347 | 19.85195 | 19505 ft | 311 kts | 288° |
| 2026-04-28 00:30 | 47.38766 | 19.82069 | 19056 ft | 312 kts | 275° |
| 2026-04-28 00:31 | 47.38642 | 19.78863 | 18597 ft | 316 kts | 262° |
| 2026-04-28 00:31 | 47.38069 | 19.75714 | 18090 ft | 318 kts | 257° |
| 2026-04-28 00:31 | 47.37458 | 19.72584 | 17616 ft | 317 kts | 257° |
| 2026-04-28 00:31 | 47.36851 | 19.69462 | 17155 ft | 316 kts | 257° |
| 2026-04-28 00:32 | 47.36245 | 19.66345 | 16674 ft | 315 kts | 258° |
| 2026-04-28 00:32 | 47.35857 | 19.63194 | 16228 ft | 310 kts | 271° |
| 2026-04-28 00:32 | 47.36036 | 19.60060 | 15788 ft | 306 kts | 284° |
| 2026-04-28 00:32 | 47.36745 | 19.57127 | 15356 ft | 303 kts | 298° |
| 2026-04-28 00:33 | 47.37930 | 19.54574 | 14946 ft | 302 kts | 311° |
| 2026-04-28 00:33 | 47.39357 | 19.52308 | 14529 ft | 301 kts | 312° |
| 2026-04-28 00:33 | 47.40779 | 19.50039 | 14106 ft | 301 kts | 312° |
| 2026-04-28 00:33 | 47.42199 | 19.47760 | 13645 ft | 301 kts | 312° |
| 2026-04-28 00:34 | 47.43610 | 19.45487 | 13221 ft | 299 kts | 312° |
| 2026-04-28 00:34 | 47.45012 | 19.43225 | 12810 ft | 298 kts | 312° |
| 2026-04-28 00:34 | 47.46406 | 19.40972 | 12395 ft | 296 kts | 312° |
| 2026-04-28 00:34 | 47.47327 | 19.39486 | 12125 ft | 295 kts | 312° |
| 2026-04-28 00:35 | 47.48712 | 19.37249 | 11720 ft | 295 kts | 312° |
| 2026-04-28 00:35 | 47.50096 | 19.35014 | 11314 ft | 294 kts | 312° |
| 2026-04-28 00:35 | 47.51479 | 19.32782 | 10892 ft | 294 kts | 312° |
| 2026-04-28 00:35 | 47.52860 | 19.30551 | 10472 ft | 294 kts | 312° |
| 2026-04-28 00:36 | 47.54219 | 19.28349 | 10331 ft | 285 kts | 312° |
| 2026-04-28 00:36 | 47.55532 | 19.26219 | 10183 ft | 276 kts | 312° |
| 2026-04-28 00:36 | 47.56810 | 19.24144 | 10047 ft | 269 kts | 312° |
| 2026-04-28 00:36 | 47.58088 | 19.22068 | 9607 ft | 276 kts | 312° |
| 2026-04-28 00:37 | 47.59378 | 19.19977 | 9251 ft | 274 kts | 312° |
| 2026-04-28 00:37 | 47.60679 | 19.17870 | 8852 ft | 275 kts | 313° |
| 2026-04-28 00:37 | 47.61960 | 19.15792 | 8538 ft | 273 kts | 313° |
| 2026-04-28 00:37 | 47.63237 | 19.13713 | 8175 ft | 272 kts | 313° |
| 2026-04-28 00:38 | 47.64506 | 19.11649 | 7938 ft | 268 kts | 313° |
| 2026-04-28 00:38 | 47.65685 | 19.09575 | 7804 ft | 259 kts | 301° |
| 2026-04-28 00:38 | 47.66198 | 19.07082 | 7643 ft | 254 kts | 272° |
| 2026-04-28 00:38 | 47.65800 | 19.04555 | 7365 ft | 256 kts | 242° |
| 2026-04-28 00:39 | 47.64633 | 19.02523 | 6831 ft | 267 kts | 225° |
| 2026-04-28 00:39 | 47.63226 | 19.00600 | 6091 ft | 283 kts | 223° |
| 2026-04-28 00:39 | 47.61584 | 18.98884 | 5339 ft | 297 kts | 200° |
| 2026-04-28 00:39 | 47.59554 | 18.98636 | 4964 ft | 295 kts | 168° |
| 2026-04-28 00:40 | 47.57716 | 18.99944 | 4494 ft | 296 kts | 141° |
| 2026-04-28 00:40 | 47.56264 | 19.02079 | 4181 ft | 291 kts | 129° |
| 2026-04-28 00:40 | 47.55049 | 19.04384 | 4157 ft | 276 kts | 126° |
| 2026-04-28 00:40 | 47.53946 | 19.06576 | 4161 ft | 262 kts | 126° |
| 2026-04-28 00:41 | 47.52848 | 19.08678 | 4163 ft | 248 kts | 128° |
| 2026-04-28 00:41 | 47.51789 | 19.10596 | 4163 ft | 233 kts | 129° |
| 2026-04-28 00:41 | 47.50753 | 19.12391 | 4165 ft | 228 kts | 131° |
| 2026-04-28 00:41 | 47.49708 | 19.14148 | 4166 ft | 227 kts | 131° |
| 2026-04-28 00:42 | 47.48670 | 19.15865 | 4166 ft | 227 kts | 132° |
| 2026-04-28 00:42 | 47.47614 | 19.17596 | 4164 ft | 227 kts | 132° |
| 2026-04-28 00:42 | 47.46552 | 19.19326 | 4165 ft | 227 kts | 132° |
| 2026-04-28 00:42 | 47.45490 | 19.21052 | 4169 ft | 227 kts | 132° |
| 2026-04-28 00:43 | 47.44432 | 19.22786 | 4167 ft | 227 kts | 130° |
| 2026-04-28 00:43 | 47.43404 | 19.24570 | 4162 ft | 228 kts | 131° |
| 2026-04-28 00:43 | 47.42301 | 19.26257 | 4165 ft | 228 kts | 137° |
| 2026-04-28 00:43 | 47.41108 | 19.27808 | 4167 ft | 228 kts | 136° |
| 2026-04-28 00:44 | 47.39919 | 19.29352 | 4162 ft | 228 kts | 153° |
| 2026-04-28 00:44 | 47.38441 | 19.30173 | 4166 ft | 227 kts | 165° |
| 2026-04-28 00:44 | 47.36908 | 19.30741 | 4165 ft | 228 kts | 168° |
| 2026-04-28 00:44 | 47.35362 | 19.31249 | 4165 ft | 228 kts | 168° |
| 2026-04-28 00:45 | 47.33816 | 19.31755 | 4167 ft | 228 kts | 168° |
| 2026-04-28 00:45 | 47.32272 | 19.32273 | 4166 ft | 227 kts | 168° |
| 2026-04-28 00:45 | 47.30731 | 19.32806 | 4167 ft | 227 kts | 167° |
| 2026-04-28 00:45 | 47.29194 | 19.33350 | 4166 ft | 227 kts | 167° |
| 2026-04-28 00:46 | 47.27656 | 19.33903 | 4164 ft | 227 kts | 167° |
| 2026-04-28 00:46 | 47.26118 | 19.34459 | 4165 ft | 228 kts | 167° |
| 2026-04-28 00:46 | 47.24581 | 19.35015 | 4168 ft | 228 kts | 167° |
| 2026-04-28 00:46 | 47.23044 | 19.35573 | 4169 ft | 228 kts | 167° |
| 2026-04-28 00:47 | 47.21509 | 19.36133 | 4170 ft | 227 kts | 167° |
| 2026-04-28 00:47 | 47.19978 | 19.36692 | 4172 ft | 227 kts | 167° |
| 2026-04-28 00:47 | 47.18447 | 19.37252 | 4172 ft | 227 kts | 167° |
| 2026-04-28 00:47 | 47.16918 | 19.37812 | 4173 ft | 227 kts | 167° |
| 2026-04-28 00:48 | 47.15388 | 19.38371 | 4174 ft | 227 kts | 167° |
| 2026-04-28 00:48 | 47.13859 | 19.38927 | 4174 ft | 226 kts | 167° |
| 2026-04-28 00:48 | 47.12330 | 19.39482 | 4176 ft | 226 kts | 167° |
| 2026-04-28 00:48 | 47.10799 | 19.40037 | 4176 ft | 226 kts | 167° |
| 2026-04-28 00:49 | 47.09270 | 19.40592 | 4180 ft | 226 kts | 167° |
| 2026-04-28 00:49 | 47.07740 | 19.41149 | 4181 ft | 226 kts | 167° |
| 2026-04-28 00:49 | 47.06232 | 19.41697 | 4186 ft | 226 kts | 167° |
| 2026-04-28 00:49 | 47.04702 | 19.42250 | 4185 ft | 226 kts | 167° |
| 2026-04-28 00:50 | 47.03174 | 19.42802 | 4183 ft | 226 kts | 167° |
| 2026-04-28 00:50 | 47.01644 | 19.43356 | 4186 ft | 226 kts | 167° |
| 2026-04-28 00:50 | 47.00114 | 19.43911 | 4184 ft | 226 kts | 167° |
| 2026-04-28 00:50 | 46.98585 | 19.44466 | 4185 ft | 226 kts | 167° |
| 2026-04-28 00:51 | 46.97055 | 19.45017 | 4188 ft | 227 kts | 167° |
| 2026-04-28 00:51 | 46.95520 | 19.45572 | 4189 ft | 227 kts | 166° |
| 2026-04-28 00:51 | 46.93984 | 19.46128 | 4191 ft | 227 kts | 166° |
| 2026-04-28 00:51 | 46.92448 | 19.46684 | 4191 ft | 227 kts | 166° |
| 2026-04-28 00:52 | 46.90913 | 19.47239 | 4190 ft | 227 kts | 166° |
| 2026-04-28 00:52 | 46.89375 | 19.47795 | 4187 ft | 227 kts | 166° |
| 2026-04-28 00:52 | 46.87840 | 19.48351 | 4189 ft | 227 kts | 166° |
| 2026-04-28 00:52 | 46.86304 | 19.48905 | 4191 ft | 227 kts | 167° |
| 2026-04-28 00:53 | 46.84766 | 19.49457 | 4191 ft | 227 kts | 167° |
| 2026-04-28 00:53 | 46.83230 | 19.50009 | 4191 ft | 227 kts | 166° |
| 2026-04-28 00:53 | 46.81694 | 19.50564 | 4193 ft | 227 kts | 166° |
| 2026-04-28 00:53 | 46.80158 | 19.51118 | 4192 ft | 227 kts | 166° |
| 2026-04-28 00:54 | 46.78623 | 19.51671 | 4190 ft | 227 kts | 166° |
| 2026-04-28 00:54 | 46.77088 | 19.52222 | 4191 ft | 227 kts | 166° |
| 2026-04-28 00:54 | 46.75552 | 19.52772 | 4191 ft | 227 kts | 166° |
| 2026-04-28 00:54 | 46.74014 | 19.53321 | 4191 ft | 228 kts | 166° |
| 2026-04-28 00:55 | 46.72472 | 19.53871 | 4190 ft | 228 kts | 166° |
| 2026-04-28 00:55 | 46.70929 | 19.54423 | 4191 ft | 228 kts | 166° |
| 2026-04-28 00:55 | 46.69386 | 19.54973 | 4190 ft | 228 kts | 166° |
| 2026-04-28 00:55 | 46.67846 | 19.55522 | 4190 ft | 227 kts | 166° |
| 2026-04-28 00:56 | 46.66310 | 19.56071 | 4189 ft | 227 kts | 166° |
| 2026-04-28 00:56 | 46.64772 | 19.56620 | 4188 ft | 227 kts | 166° |
| 2026-04-28 00:56 | 46.63235 | 19.57170 | 4190 ft | 227 kts | 166° |
| 2026-04-28 00:56 | 46.61700 | 19.57719 | 4190 ft | 227 kts | 166° |
| 2026-04-28 00:57 | 46.60163 | 19.58269 | 4190 ft | 227 kts | 166° |
| 2026-04-28 00:57 | 46.58627 | 19.58820 | 4189 ft | 227 kts | 166° |
| 2026-04-28 00:57 | 46.57091 | 19.59371 | 4191 ft | 227 kts | 166° |
| 2026-04-28 00:57 | 46.55555 | 19.59918 | 4190 ft | 227 kts | 166° |
| 2026-04-28 00:58 | 46.54018 | 19.60464 | 4190 ft | 227 kts | 166° |
| 2026-04-28 00:58 | 46.52481 | 19.61010 | 4190 ft | 227 kts | 166° |
| 2026-04-28 00:58 | 46.50942 | 19.61556 | 4190 ft | 228 kts | 166° |
| 2026-04-28 00:58 | 46.49400 | 19.62104 | 4189 ft | 228 kts | 166° |
| 2026-04-28 00:59 | 46.47858 | 19.62653 | 4190 ft | 228 kts | 166° |
| 2026-04-28 00:59 | 46.46316 | 19.63201 | 4191 ft | 228 kts | 166° |
| 2026-04-28 00:59 | 46.44772 | 19.63750 | 4191 ft | 228 kts | 166° |
| 2026-04-28 00:59 | 46.43230 | 19.64294 | 4190 ft | 228 kts | 166° |
| 2026-04-28 01:00 | 46.41685 | 19.64837 | 4189 ft | 228 kts | 166° |
| 2026-04-28 01:00 | 46.40144 | 19.65382 | 4189 ft | 228 kts | 166° |
| 2026-04-28 01:00 | 46.38606 | 19.65928 | 4190 ft | 228 kts | 166° |
| 2026-04-28 01:00 | 46.37068 | 19.66472 | 4190 ft | 228 kts | 166° |
| 2026-04-28 01:01 | 46.35530 | 19.67013 | 4190 ft | 227 kts | 166° |
| 2026-04-28 01:01 | 46.33993 | 19.67556 | 4189 ft | 227 kts | 166° |
| 2026-04-28 01:01 | 46.32457 | 19.68102 | 4188 ft | 227 kts | 166° |
| 2026-04-28 01:01 | 46.30922 | 19.68646 | 4187 ft | 227 kts | 166° |
| 2026-04-28 01:02 | 46.29405 | 19.69182 | 4189 ft | 227 kts | 166° |
| 2026-04-28 01:02 | 46.27848 | 19.69733 | 4187 ft | 228 kts | 166° |
| 2026-04-28 01:02 | 46.26332 | 19.70270 | 4188 ft | 228 kts | 167° |
| 2026-04-28 01:02 | 46.24792 | 19.70812 | 4186 ft | 228 kts | 167° |
| 2026-04-28 01:03 | 46.23252 | 19.71355 | 4186 ft | 228 kts | 167° |
| 2026-04-28 01:03 | 46.21712 | 19.71896 | 4189 ft | 228 kts | 167° |
| 2026-04-28 01:03 | 46.20172 | 19.72438 | 4186 ft | 228 kts | 167° |
| 2026-04-28 01:03 | 46.18633 | 19.72979 | 4187 ft | 228 kts | 167° |
| 2026-04-28 01:04 | 46.17092 | 19.73519 | 4188 ft | 228 kts | 167° |
| 2026-04-28 01:04 | 46.15553 | 19.74058 | 4185 ft | 228 kts | 167° |
| 2026-04-28 01:04 | 46.14015 | 19.74598 | 4184 ft | 228 kts | 167° |
| 2026-04-28 01:04 | 46.12475 | 19.75135 | 4185 ft | 228 kts | 167° |
| 2026-04-28 01:05 | 46.10934 | 19.75670 | 4185 ft | 228 kts | 167° |
| 2026-04-28 01:05 | 46.09393 | 19.76208 | 4185 ft | 228 kts | 167° |
| 2026-04-28 01:05 | 46.07852 | 19.76747 | 4185 ft | 228 kts | 167° |
| 2026-04-28 01:05 | 46.06310 | 19.77285 | 4185 ft | 228 kts | 167° |
| 2026-04-28 01:06 | 46.04766 | 19.77821 | 4183 ft | 228 kts | 167° |
| 2026-04-28 01:06 | 46.03222 | 19.78359 | 4185 ft | 229 kts | 167° |
| 2026-04-28 01:06 | 46.01675 | 19.78898 | 4185 ft | 229 kts | 167° |
| 2026-04-28 01:06 | 46.00130 | 19.79435 | 4184 ft | 228 kts | 167° |
| 2026-04-28 01:07 | 45.98585 | 19.79976 | 4181 ft | 229 kts | 167° |
| 2026-04-28 01:07 | 45.97040 | 19.80517 | 4179 ft | 229 kts | 167° |
| 2026-04-28 01:07 | 45.95496 | 19.81057 | 4177 ft | 229 kts | 167° |
| 2026-04-28 01:07 | 45.94471 | 19.81414 | 4179 ft | 229 kts | 167° |
| 2026-04-28 01:08 | 45.92404 | 19.82135 | 4181 ft | 229 kts | 167° |
| 2026-04-28 01:08 | 45.90859 | 19.82673 | 4178 ft | 228 kts | 167° |
| 2026-04-28 01:08 | 45.89314 | 19.83209 | 4179 ft | 229 kts | 167° |
| 2026-04-28 01:08 | 45.87767 | 19.83745 | 4180 ft | 229 kts | 167° |
| 2026-04-28 01:09 | 45.86221 | 19.84282 | 4178 ft | 229 kts | 167° |
| 2026-04-28 01:09 | 45.84676 | 19.84819 | 4179 ft | 229 kts | 167° |
| 2026-04-28 01:09 | 45.83131 | 19.85357 | 4178 ft | 228 kts | 167° |
| 2026-04-28 01:09 | 45.81587 | 19.85895 | 4180 ft | 228 kts | 167° |
| 2026-04-28 01:10 | 45.80043 | 19.86430 | 4179 ft | 228 kts | 167° |
| 2026-04-28 01:10 | 45.78500 | 19.86960 | 4178 ft | 228 kts | 167° |
| 2026-04-28 01:10 | 45.76962 | 19.87489 | 4176 ft | 227 kts | 167° |
| 2026-04-28 01:10 | 45.75426 | 19.88021 | 4176 ft | 227 kts | 167° |
| 2026-04-28 01:11 | 45.73888 | 19.88554 | 4174 ft | 227 kts | 167° |
| 2026-04-28 01:11 | 45.72351 | 19.89086 | 4174 ft | 227 kts | 167° |
| 2026-04-28 01:11 | 45.70812 | 19.89618 | 4175 ft | 227 kts | 167° |
| 2026-04-28 01:11 | 45.69276 | 19.90149 | 4173 ft | 227 kts | 167° |
| 2026-04-28 01:12 | 45.67739 | 19.90678 | 4175 ft | 227 kts | 167° |
| 2026-04-28 01:12 | 45.66202 | 19.91206 | 4176 ft | 227 kts | 167° |
| 2026-04-28 01:12 | 45.64665 | 19.91734 | 4175 ft | 227 kts | 167° |
| 2026-04-28 01:12 | 45.63128 | 19.92262 | 4176 ft | 227 kts | 167° |
| 2026-04-28 01:13 | 45.61594 | 19.92793 | 4172 ft | 226 kts | 167° |
| 2026-04-28 01:13 | 45.58553 | 19.93838 | 4173 ft | 226 kts | 167° |
| 2026-04-28 01:13 | 45.57024 | 19.94363 | 4173 ft | 226 kts | 167° |
| 2026-04-28 01:14 | 45.55490 | 19.94887 | 4173 ft | 226 kts | 167° |
| 2026-04-28 01:14 | 45.53958 | 19.95408 | 4173 ft | 226 kts | 167° |
| 2026-04-28 01:14 | 45.52426 | 19.95933 | 4171 ft | 226 kts | 167° |
| 2026-04-28 01:14 | 45.50894 | 19.96458 | 4172 ft | 227 kts | 167° |
| 2026-04-28 01:15 | 45.49362 | 19.96984 | 4169 ft | 226 kts | 167° |
| 2026-04-28 01:15 | 45.47829 | 19.97508 | 4172 ft | 227 kts | 167° |
| 2026-04-28 01:15 | 45.46295 | 19.98031 | 4171 ft | 227 kts | 167° |
| 2026-04-28 01:15 | 45.44762 | 19.98553 | 4171 ft | 227 kts | 167° |
| 2026-04-28 01:16 | 45.43230 | 19.99077 | 4171 ft | 227 kts | 167° |
| 2026-04-28 01:16 | 45.41696 | 19.99602 | 4171 ft | 227 kts | 167° |
| 2026-04-28 01:16 | 45.40163 | 20.00126 | 4171 ft | 227 kts | 167° |
| 2026-04-28 01:16 | 45.38628 | 20.00651 | 4170 ft | 227 kts | 167° |
| 2026-04-28 01:17 | 45.37089 | 20.01177 | 4168 ft | 227 kts | 167° |
| 2026-04-28 01:17 | 45.35554 | 20.01703 | 4167 ft | 227 kts | 167° |
| 2026-04-28 01:17 | 45.34017 | 20.02231 | 4164 ft | 227 kts | 167° |
| 2026-04-28 01:17 | 45.32480 | 20.02756 | 4167 ft | 227 kts | 167° |
| 2026-04-28 01:18 | 45.30945 | 20.03279 | 4168 ft | 227 kts | 167° |
| 2026-04-28 01:18 | 45.29407 | 20.03802 | 4168 ft | 227 kts | 167° |
| 2026-04-28 01:18 | 45.27872 | 20.04323 | 4169 ft | 227 kts | 167° |
| 2026-04-28 01:18 | 45.26335 | 20.04844 | 4166 ft | 227 kts | 167° |
| 2026-04-28 01:19 | 45.24797 | 20.05364 | 4167 ft | 227 kts | 167° |
| 2026-04-28 01:19 | 45.23779 | 20.05709 | 4165 ft | 227 kts | 167° |
| 2026-04-28 01:19 | 45.21727 | 20.06403 | 4165 ft | 227 kts | 167° |
| 2026-04-28 01:19 | 45.20193 | 20.06924 | 4168 ft | 227 kts | 167° |
| 2026-04-28 01:20 | 45.18657 | 20.07443 | 4168 ft | 227 kts | 167° |
| 2026-04-28 01:20 | 45.17123 | 20.07963 | 4166 ft | 226 kts | 167° |
| 2026-04-28 01:20 | 45.15592 | 20.08482 | 4162 ft | 226 kts | 167° |
| 2026-04-28 01:20 | 45.14062 | 20.08998 | 4164 ft | 226 kts | 167° |
| 2026-04-28 01:21 | 45.12531 | 20.09512 | 4168 ft | 226 kts | 167° |
| 2026-04-28 01:21 | 45.10999 | 20.10028 | 4167 ft | 226 kts | 167° |
| 2026-04-28 01:21 | 45.09470 | 20.10544 | 4164 ft | 226 kts | 167° |
| 2026-04-28 01:21 | 45.08456 | 20.10885 | 4165 ft | 226 kts | 167° |
| 2026-04-28 01:22 | 45.06928 | 20.11397 | 4163 ft | 226 kts | 167° |
| 2026-04-28 01:22 | 45.05395 | 20.11910 | 4163 ft | 226 kts | 167° |
| 2026-04-28 01:22 | 45.03865 | 20.12424 | 4163 ft | 226 kts | 167° |
| 2026-04-28 01:22 | 45.02334 | 20.12941 | 4163 ft | 226 kts | 167° |
| 2026-04-28 01:23 | 45.00801 | 20.13459 | 4161 ft | 226 kts | 167° |
| 2026-04-28 01:23 | 44.99271 | 20.13976 | 4166 ft | 226 kts | 167° |
| 2026-04-28 01:23 | 44.97736 | 20.14491 | 4166 ft | 226 kts | 167° |
| 2026-04-28 01:23 | 44.96204 | 20.15004 | 4165 ft | 226 kts | 167° |
| 2026-04-28 01:24 | 44.94672 | 20.15518 | 4165 ft | 226 kts | 167° |
| 2026-04-28 01:24 | 44.93141 | 20.16033 | 4166 ft | 226 kts | 167° |
| 2026-04-28 01:24 | 44.91610 | 20.16547 | 4166 ft | 226 kts | 167° |
| 2026-04-28 01:24 | 44.90079 | 20.17061 | 4166 ft | 226 kts | 167° |
| 2026-04-28 01:25 | 44.88552 | 20.17573 | 4165 ft | 225 kts | 167° |
| 2026-04-28 01:25 | 44.87029 | 20.18084 | 4166 ft | 225 kts | 167° |
| 2026-04-28 01:25 | 44.85505 | 20.18593 | 4166 ft | 225 kts | 167° |
| 2026-04-28 01:25 | 44.83980 | 20.19103 | 4166 ft | 225 kts | 167° |
| 2026-04-28 01:26 | 44.82455 | 20.19614 | 4167 ft | 225 kts | 167° |
| 2026-04-28 01:26 | 44.80928 | 20.20124 | 4165 ft | 225 kts | 167° |
| 2026-04-28 01:26 | 44.79400 | 20.20634 | 4166 ft | 225 kts | 167° |
| 2026-04-28 01:26 | 44.77874 | 20.21144 | 4166 ft | 225 kts | 167° |
| 2026-04-28 01:27 | 44.76347 | 20.21652 | 4166 ft | 225 kts | 168° |
| 2026-04-28 01:27 | 44.74822 | 20.22157 | 4165 ft | 225 kts | 167° |
| 2026-04-28 01:27 | 44.73300 | 20.22665 | 4160 ft | 224 kts | 167° |
| 2026-04-28 01:27 | 44.71782 | 20.23171 | 4163 ft | 224 kts | 167° |
| 2026-04-28 01:28 | 44.70266 | 20.23677 | 4163 ft | 224 kts | 167° |
| 2026-04-28 01:28 | 44.68750 | 20.24185 | 4163 ft | 224 kts | 167° |
| 2026-04-28 01:28 | 44.67234 | 20.24691 | 4161 ft | 224 kts | 167° |
| 2026-04-28 01:28 | 44.65737 | 20.25186 | 4160 ft | 224 kts | 167° |
| 2026-04-28 01:29 | 44.64220 | 20.25686 | 4160 ft | 224 kts | 167° |
| 2026-04-28 01:29 | 44.62704 | 20.26188 | 4159 ft | 224 kts | 167° |
| 2026-04-28 01:29 | 44.61187 | 20.26689 | 4157 ft | 224 kts | 167° |
| 2026-04-28 01:29 | 44.59669 | 20.27193 | 4155 ft | 224 kts | 167° |
| 2026-04-28 01:30 | 44.58151 | 20.27698 | 4155 ft | 224 kts | 167° |
| 2026-04-28 01:30 | 44.56633 | 20.28202 | 4156 ft | 224 kts | 167° |
| 2026-04-28 01:30 | 44.55114 | 20.28704 | 4156 ft | 224 kts | 167° |
| 2026-04-28 01:30 | 44.53595 | 20.29205 | 4155 ft | 224 kts | 167° |
| 2026-04-28 01:31 | 44.52079 | 20.29708 | 4150 ft | 223 kts | 167° |
| 2026-04-28 01:31 | 44.50567 | 20.30207 | 4150 ft | 223 kts | 167° |
| 2026-04-28 01:31 | 44.49055 | 20.30706 | 4152 ft | 223 kts | 167° |
| 2026-04-28 01:31 | 44.47541 | 20.31204 | 4152 ft | 224 kts | 167° |
| 2026-04-28 01:32 | 44.46025 | 20.31703 | 4150 ft | 224 kts | 167° |
| 2026-04-28 01:32 | 44.44508 | 20.32204 | 4150 ft | 224 kts | 167° |
| 2026-04-28 01:32 | 44.42991 | 20.32707 | 4147 ft | 224 kts | 167° |
| 2026-04-28 01:32 | 44.41476 | 20.33209 | 4148 ft | 224 kts | 167° |
| 2026-04-28 01:33 | 44.39959 | 20.33709 | 4146 ft | 224 kts | 167° |
| 2026-04-28 01:33 | 44.38443 | 20.34207 | 4147 ft | 224 kts | 167° |
| 2026-04-28 01:33 | 44.36927 | 20.34704 | 4147 ft | 224 kts | 167° |
| 2026-04-28 01:33 | 44.35410 | 20.35201 | 4145 ft | 224 kts | 167° |
| 2026-04-28 01:34 | 44.33894 | 20.35698 | 4151 ft | 224 kts | 167° |
| 2026-04-28 01:34 | 44.32377 | 20.36195 | 4150 ft | 224 kts | 167° |
| 2026-04-28 01:34 | 44.30860 | 20.36693 | 4149 ft | 224 kts | 167° |
| 2026-04-28 01:34 | 44.29345 | 20.37192 | 4150 ft | 224 kts | 167° |
| 2026-04-28 01:35 | 44.27831 | 20.37690 | 4151 ft | 224 kts | 167° |
| 2026-04-28 01:35 | 44.26315 | 20.38187 | 4150 ft | 224 kts | 167° |
| 2026-04-28 01:35 | 44.24802 | 20.38682 | 4149 ft | 224 kts | 167° |
| 2026-04-28 01:35 | 44.23287 | 20.39177 | 4151 ft | 224 kts | 167° |
| 2026-04-28 01:36 | 44.21771 | 20.39673 | 4150 ft | 224 kts | 167° |
| 2026-04-28 01:36 | 44.20257 | 20.40166 | 4152 ft | 224 kts | 167° |
| 2026-04-28 01:36 | 44.18742 | 20.40661 | 4153 ft | 224 kts | 167° |
| 2026-04-28 01:36 | 44.17227 | 20.41157 | 4150 ft | 224 kts | 167° |
| 2026-04-28 01:37 | 44.15711 | 20.41652 | 4150 ft | 224 kts | 167° |
| 2026-04-28 01:37 | 44.14195 | 20.42148 | 4152 ft | 224 kts | 167° |
| 2026-04-28 01:37 | 44.12679 | 20.42642 | 4154 ft | 224 kts | 167° |
| 2026-04-28 01:37 | 44.11165 | 20.43139 | 4161 ft | 224 kts | 167° |
| 2026-04-28 01:38 | 44.09651 | 20.43636 | 4157 ft | 223 kts | 167° |
| 2026-04-28 01:38 | 44.08140 | 20.44128 | 4157 ft | 223 kts | 167° |
| 2026-04-28 01:38 | 44.06631 | 20.44619 | 4159 ft | 223 kts | 167° |
| 2026-04-28 01:38 | 44.05123 | 20.45121 | 4160 ft | 223 kts | 164° |
| 2026-04-28 01:39 | 44.03819 | 20.46206 | 4161 ft | 222 kts | 126° |
| 2026-04-28 01:39 | 44.03362 | 20.48198 | 4161 ft | 221 kts | 83° |
| 2026-04-28 01:39 | 44.03989 | 20.50075 | 4161 ft | 218 kts | 40° |
| 2026-04-28 01:39 | 44.05217 | 20.51319 | 4160 ft | 220 kts | 34° |
| 2026-04-28 01:40 | 44.06410 | 20.52648 | 4160 ft | 220 kts | 44° |
| 2026-04-28 01:40 | 44.07383 | 20.54294 | 4160 ft | 221 kts | 58° |
| 2026-04-28 01:40 | 44.08002 | 20.56220 | 4155 ft | 222 kts | 75° |
| 2026-04-28 01:40 | 44.08181 | 20.58345 | 4160 ft | 222 kts | 93° |
| 2026-04-28 01:41 | 44.07878 | 20.60443 | 4154 ft | 223 kts | 111° |
| 2026-04-28 01:41 | 44.07144 | 20.62333 | 4156 ft | 223 kts | 127° |
| 2026-04-28 01:41 | 44.06095 | 20.63909 | 4148 ft | 222 kts | 140° |
| 2026-04-28 01:41 | 44.04843 | 20.65173 | 4148 ft | 223 kts | 149° |
| 2026-04-28 01:42 | 44.03472 | 20.66180 | 4152 ft | 223 kts | 156° |
| 2026-04-28 01:42 | 44.02039 | 20.66997 | 4152 ft | 223 kts | 160° |
| 2026-04-28 01:42 | 44.00571 | 20.67687 | 4149 ft | 223 kts | 163° |
| 2026-04-28 01:42 | 43.99088 | 20.68294 | 4150 ft | 222 kts | 165° |
| 2026-04-28 01:43 | 43.97598 | 20.68851 | 4149 ft | 222 kts | 166° |
| 2026-04-28 01:43 | 43.96102 | 20.69387 | 4149 ft | 222 kts | 166° |
| 2026-04-28 01:43 | 43.94605 | 20.69921 | 4150 ft | 222 kts | 166° |
| 2026-04-28 01:43 | 43.93111 | 20.70455 | 4156 ft | 222 kts | 166° |
| 2026-04-28 01:44 | 43.91618 | 20.70987 | 4157 ft | 221 kts | 166° |
| 2026-04-28 01:44 | 43.90126 | 20.71518 | 4156 ft | 221 kts | 166° |
| 2026-04-28 01:44 | 43.88636 | 20.72049 | 4155 ft | 221 kts | 166° |
| 2026-04-28 01:44 | 43.87142 | 20.72581 | 4150 ft | 221 kts | 166° |
| 2026-04-28 01:45 | 43.85651 | 20.73112 | 4155 ft | 221 kts | 166° |
| 2026-04-28 01:45 | 43.84159 | 20.73642 | 4156 ft | 221 kts | 166° |
| 2026-04-28 01:45 | 43.82667 | 20.74173 | 4155 ft | 221 kts | 166° |
| 2026-04-28 01:45 | 43.81175 | 20.74703 | 4155 ft | 221 kts | 166° |
| 2026-04-28 01:46 | 43.79682 | 20.75233 | 4154 ft | 221 kts | 166° |
| 2026-04-28 01:46 | 43.78190 | 20.75763 | 4156 ft | 221 kts | 166° |
| 2026-04-28 01:46 | 43.76698 | 20.76292 | 4158 ft | 221 kts | 166° |
| 2026-04-28 01:46 | 43.75206 | 20.76822 | 4157 ft | 221 kts | 166° |
| 2026-04-28 01:47 | 43.73733 | 20.77344 | 4158 ft | 221 kts | 166° |
| 2026-04-28 01:47 | 43.72240 | 20.77873 | 4153 ft | 221 kts | 166° |
| 2026-04-28 01:47 | 43.70748 | 20.78402 | 4151 ft | 221 kts | 166° |
| 2026-04-28 01:47 | 43.69257 | 20.78930 | 4151 ft | 221 kts | 166° |
| 2026-04-28 01:48 | 43.67765 | 20.79458 | 4158 ft | 221 kts | 166° |
| 2026-04-28 01:48 | 43.66272 | 20.79986 | 4157 ft | 221 kts | 166° |
| 2026-04-28 01:48 | 43.64780 | 20.80514 | 4158 ft | 221 kts | 166° |
| 2026-04-28 01:48 | 43.63288 | 20.81042 | 4156 ft | 221 kts | 166° |
| 2026-04-28 01:49 | 43.61794 | 20.81570 | 4158 ft | 221 kts | 166° |
| 2026-04-28 01:49 | 43.60303 | 20.82097 | 4161 ft | 221 kts | 166° |
| 2026-04-28 01:49 | 43.58809 | 20.82625 | 4154 ft | 222 kts | 166° |
| 2026-04-28 01:49 | 43.57312 | 20.83153 | 4152 ft | 222 kts | 166° |
| 2026-04-28 01:50 | 43.55816 | 20.83682 | 4150 ft | 222 kts | 166° |
| 2026-04-28 01:50 | 43.54323 | 20.84209 | 4153 ft | 222 kts | 166° |
| 2026-04-28 01:50 | 43.52830 | 20.84736 | 4150 ft | 221 kts | 166° |